createdAt,value
2022-12-22T00:02:37.050Z,15.09
2022-12-22T00:05:34.925Z,15.46
2022-12-22T00:08:20.195Z,15.74
2022-12-22T00:11:05.450Z,15.70
2022-12-22T00:13:51.157Z,15.66
2022-12-22T00:16:36.980Z,15.93
2022-12-22T00:19:30.340Z,15.58
2022-12-22T00:22:19.669Z,15.56
2022-12-22T00:25:04.930Z,15.86
2022-12-22T00:27:50.522Z,16.05
2022-12-22T00:30:36.638Z,15.82
2022-12-22T00:33:24.435Z,15.34
2022-12-22T00:36:09.987Z,15.71
2022-12-22T00:38:55.287Z,15.46
2022-12-22T00:41:40.433Z,15.40
2022-12-22T00:44:25.467Z,15.61
2022-12-22T00:47:10.759Z,15.41
2022-12-22T00:49:56.036Z,15.45
2022-12-22T00:52:42.183Z,15.40
2022-12-22T00:55:36.112Z,15.60
2022-12-22T00:58:39.947Z,15.10
2022-12-22T01:01:25.015Z,15.28
2022-12-22T01:04:10.427Z,15.36
2022-12-22T01:06:56.795Z,14.97
2022-12-22T01:09:42.714Z,15.78
2022-12-22T01:12:37.731Z,15.93
2022-12-22T01:15:29.989Z,15.57
2022-12-22T01:18:15.310Z,15.99
2022-12-22T01:21:00.556Z,16.12
2022-12-22T01:23:46.789Z,16.16
2022-12-22T01:26:32.396Z,16.00
2022-12-22T01:29:17.865Z,15.65
2022-12-22T01:32:03.144Z,15.73
2022-12-22T01:34:48.326Z,16.16
2022-12-22T01:37:33.685Z,16.19
2022-12-22T01:40:18.929Z,16.47
2022-12-22T01:43:04.266Z,16.32
2022-12-22T01:45:51.984Z,16.01
2022-12-22T01:48:47.666Z,16.19
2022-12-22T01:51:38.516Z,16.01
2022-12-22T01:54:25.157Z,15.98
2022-12-22T01:57:10.461Z,15.93
2022-12-22T01:59:56.097Z,15.64
2022-12-22T02:02:42.209Z,15.52
2022-12-22T02:05:29.995Z,15.59
2022-12-22T02:08:45.980Z,15.96
2022-12-22T02:12:03.041Z,15.88
2022-12-22T02:15:04.621Z,15.71
2022-12-22T02:18:21.626Z,15.95
2022-12-22T02:21:21.738Z,16.31
2022-12-22T02:24:31.669Z,16.16
2022-12-22T02:27:18.797Z,16.43
2022-12-22T02:30:11.546Z,16.33
2022-12-22T02:33:06.920Z,16.08
2022-12-22T02:36:10.060Z,16.07
2022-12-22T02:39:11.143Z,15.84
2022-12-22T02:42:15.428Z,15.99
2022-12-22T02:45:31.643Z,15.99
2022-12-22T02:48:22.428Z,15.48
2022-12-22T02:51:14.732Z,15.53
2022-12-22T02:54:00.031Z,15.32
2022-12-22T02:56:45.665Z,15.34
2022-12-22T02:59:31.109Z,15.30
2022-12-22T03:02:17.000Z,15.57
2022-12-22T03:05:02.076Z,15.84
2022-12-22T03:07:47.221Z,15.10
2022-12-22T03:10:32.869Z,15.93
2022-12-22T03:13:18.717Z,16.42
2022-12-22T03:16:04.621Z,16.37
2022-12-22T03:18:49.935Z,16.62
2022-12-22T03:21:35.584Z,16.26
2022-12-22T03:24:20.765Z,16.32
2022-12-22T03:26:47.574Z,15.92
2022-12-22T03:29:14.122Z,15.87
2022-12-22T03:31:40.834Z,15.82
2022-12-22T03:34:07.443Z,16.20
2022-12-22T03:36:34.019Z,16.25
2022-12-22T03:39:00.547Z,15.98
2022-12-22T03:41:45.720Z,15.86
2022-12-22T03:44:31.631Z,16.21
2022-12-22T03:46:58.360Z,16.42
2022-12-22T03:49:26.196Z,16.43
2022-12-22T03:51:53.485Z,16.56
2022-12-22T03:54:25.070Z,16.69
2022-12-22T03:56:52.695Z,16.50
2022-12-22T03:59:20.205Z,16.81
2022-12-22T04:01:51.754Z,17.11
2022-12-22T04:04:20.843Z,17.12
2022-12-22T04:06:48.313Z,16.96
2022-12-22T04:09:14.949Z,16.69
2022-12-22T04:12:00.225Z,16.33
2022-12-22T04:14:33.526Z,16.51
2022-12-22T04:17:02.014Z,16.14
2022-12-22T04:19:28.565Z,15.99
2022-12-22T04:21:55.452Z,15.99
2022-12-22T04:24:22.404Z,16.01
2022-12-22T04:26:49.569Z,15.89
2022-12-22T04:29:16.939Z,16.33
2022-12-22T04:31:44.274Z,15.87
2022-12-22T04:34:11.336Z,15.51
2022-12-22T04:36:37.880Z,15.96
2022-12-22T04:39:04.435Z,15.92
2022-12-22T04:41:30.970Z,16.29
2022-12-22T04:43:57.507Z,16.44
2022-12-22T04:46:24.492Z,16.71
2022-12-22T04:48:54.640Z,16.35
2022-12-22T04:51:26.375Z,16.52
2022-12-22T04:53:52.981Z,16.25
2022-12-22T04:56:19.860Z,16.40
2022-12-22T04:58:46.381Z,16.06
2022-12-22T05:01:15.873Z,15.53
2022-12-22T05:03:42.728Z,15.89
2022-12-22T05:06:10.264Z,15.61
2022-12-22T05:08:37.235Z,15.82
2022-12-22T05:11:03.986Z,16.07
2022-12-22T05:13:31.709Z,16.04
2022-12-22T05:16:12.810Z,15.79
2022-12-22T05:18:41.304Z,15.78
2022-12-22T05:21:14.476Z,16.28
2022-12-22T05:23:42.353Z,16.40
2022-12-22T05:26:09.461Z,16.55
2022-12-22T05:28:36.476Z,16.74
2022-12-22T05:31:24.758Z,16.99
2022-12-22T05:33:51.656Z,16.92
2022-12-22T05:36:18.809Z,16.72
2022-12-22T05:38:45.690Z,16.82
2022-12-22T05:41:12.343Z,16.77
2022-12-22T05:43:39.543Z,16.64
2022-12-22T05:46:09.320Z,16.43
2022-12-22T05:48:38.954Z,16.32
2022-12-22T05:51:09.589Z,16.20
2022-12-22T05:53:37.133Z,16.46
2022-12-22T05:56:03.841Z,16.35
2022-12-22T05:58:30.392Z,16.35
2022-12-22T06:00:58.929Z,16.56
2022-12-22T06:03:26.705Z,16.90
2022-12-22T06:05:53.601Z,17.01
2022-12-22T06:08:20.721Z,17.18
2022-12-22T06:10:48.327Z,16.90
2022-12-22T06:13:15.016Z,16.83
2022-12-22T06:15:42.317Z,24.90
2022-12-22T06:18:08.919Z,20.29
2022-12-22T06:20:35.604Z,18.10
2022-12-22T06:23:02.201Z,17.85
2022-12-22T06:25:28.772Z,17.28
2022-12-22T06:27:55.305Z,17.32
2022-12-22T06:30:25.787Z,17.09
2022-12-22T06:32:55.872Z,16.92
2022-12-22T06:35:22.399Z,17.28
2022-12-22T06:37:48.937Z,16.33
2022-12-22T06:40:15.469Z,16.55
2022-12-22T06:43:07.850Z,16.97
2022-12-22T06:45:43.028Z,17.32
2022-12-22T06:48:11.069Z,17.25
2022-12-22T06:50:37.651Z,17.49
2022-12-22T06:53:05.026Z,17.70
2022-12-22T06:55:31.678Z,17.65
2022-12-22T06:57:58.307Z,17.51
2022-12-22T07:00:25.064Z,17.82
2022-12-22T07:02:51.825Z,17.80
2022-12-22T07:05:18.735Z,18.03
2022-12-22T07:07:45.447Z,18.31
2022-12-22T07:10:12.014Z,18.38
2022-12-22T07:12:38.606Z,18.61
2022-12-22T07:15:05.865Z,18.50
2022-12-22T07:17:32.451Z,18.58
2022-12-22T07:19:59.003Z,18.74
2022-12-22T07:22:29.806Z,18.57
2022-12-22T07:24:57.635Z,18.84
2022-12-22T07:27:24.243Z,18.93
2022-12-22T07:29:50.968Z,18.95
2022-12-22T07:32:17.958Z,19.02
2022-12-22T07:34:45.367Z,19.05
2022-12-22T07:37:13.541Z,19.13
2022-12-22T07:39:40.191Z,19.12
2022-12-22T07:42:25.125Z,19.16
2022-12-22T07:44:52.003Z,19.03
2022-12-22T07:47:18.515Z,18.96
2022-12-22T07:50:03.665Z,18.91
2022-12-22T07:52:30.187Z,18.87
2022-12-22T07:54:56.749Z,18.97
2022-12-22T07:57:23.485Z,18.99
2022-12-22T07:59:50.279Z,19.17
2022-12-22T08:02:16.987Z,19.20
2022-12-22T08:04:43.633Z,19.05
2022-12-22T08:07:10.283Z,19.18
2022-12-22T08:09:36.826Z,19.25
2022-12-22T08:12:03.483Z,19.32
2022-12-22T08:14:30.080Z,19.36
2022-12-22T08:16:58.340Z,19.38
2022-12-22T08:19:24.870Z,19.41
2022-12-22T08:21:53.247Z,19.41
2022-12-22T08:24:20.942Z,19.39
2022-12-22T08:26:51.439Z,19.37
2022-12-22T08:29:23.651Z,18.90
2022-12-22T08:31:50.585Z,18.99
2022-12-22T08:34:17.329Z,19.12
2022-12-22T08:36:49.054Z,18.85
2022-12-22T08:39:16.666Z,18.93
2022-12-22T08:41:52.436Z,18.88
2022-12-22T08:44:26.713Z,19.00
2022-12-22T08:46:56.348Z,19.17
2022-12-22T08:49:24.159Z,19.29
2022-12-22T08:51:51.150Z,19.39
2022-12-22T08:54:18.297Z,19.38
2022-12-22T08:56:45.405Z,19.37
2022-12-22T08:59:12.755Z,19.45
2022-12-22T09:01:44.161Z,19.40
2022-12-22T09:04:15.468Z,19.48
2022-12-22T09:06:42.049Z,19.50
2022-12-22T09:09:10.944Z,19.59
2022-12-22T09:11:39.695Z,19.64
2022-12-22T09:14:07.677Z,19.73
2022-12-22T09:16:35.554Z,19.76
2022-12-22T09:19:03.426Z,19.79
2022-12-22T09:21:30.701Z,19.83
2022-12-22T09:23:57.915Z,19.85
2022-12-22T09:26:26.089Z,19.88
2022-12-22T09:28:52.903Z,19.91
2022-12-22T09:31:21.562Z,19.91
2022-12-22T09:33:48.737Z,19.93
2022-12-22T09:36:18.744Z,19.94
2022-12-22T09:38:45.540Z,20.00
2022-12-22T09:41:20.120Z,20.06
2022-12-22T09:43:47.505Z,20.13
2022-12-22T09:46:31.617Z,20.30
2022-12-22T09:48:58.887Z,20.33
2022-12-22T09:51:27.422Z,20.41
2022-12-22T09:53:58.187Z,20.37
2022-12-22T09:56:27.144Z,20.39
2022-12-22T09:58:53.688Z,20.22
2022-12-22T10:01:50.148Z,20.40
2022-12-22T10:04:58.365Z,20.47
2022-12-22T10:07:34.564Z,20.44
2022-12-22T10:10:27.346Z,20.41
2022-12-22T10:13:00.096Z,20.32
2022-12-22T10:15:33.738Z,20.15
2022-12-22T10:18:11.071Z,20.32
2022-12-22T10:20:39.632Z,20.36
2022-12-22T10:23:26.825Z,20.19
2022-12-22T10:29:01.154Z,19.83
2022-12-22T10:31:34.020Z,19.55
2022-12-22T10:34:16.330Z,19.70
2022-12-22T10:36:50.822Z,19.87
2022-12-22T10:39:38.516Z,19.83
2022-12-22T10:42:13.565Z,19.52
2022-12-22T10:44:45.551Z,19.47
2022-12-22T10:47:17.942Z,19.39
2022-12-22T10:49:48.851Z,19.52
2022-12-22T10:52:29.436Z,19.14
2022-12-22T10:55:28.558Z,19.42
2022-12-22T10:58:10.387Z,19.06
2022-12-22T11:00:41.107Z,18.94
2022-12-22T11:03:19.008Z,19.17
2022-12-22T11:05:51.497Z,19.21
2022-12-22T11:08:20.275Z,19.51
2022-12-22T11:10:56.330Z,19.54
2022-12-22T11:13:58.674Z,19.41
2022-12-22T11:16:58.958Z,19.52
2022-12-22T11:19:45.281Z,19.55
2022-12-22T11:22:27.712Z,19.43
2022-12-22T11:25:12.934Z,19.48
2022-12-22T11:28:03.740Z,19.44
2022-12-22T11:30:56.613Z,19.56
2022-12-22T11:33:40.070Z,19.67
2022-12-22T11:36:18.293Z,19.80
2022-12-22T11:38:53.935Z,19.96
2022-12-22T11:41:34.556Z,19.87
2022-12-22T11:44:38.007Z,19.21
2022-12-22T11:47:22.983Z,19.13
2022-12-22T11:51:02.092Z,19.18
2022-12-22T11:53:28.521Z,18.92
2022-12-22T11:56:14.787Z,19.13
2022-12-22T11:59:05.795Z,18.72
2022-12-22T12:01:48.063Z,18.08
2022-12-22T12:04:30.855Z,17.84
2022-12-22T12:07:06.099Z,17.57
2022-12-22T12:10:04.018Z,17.96
2022-12-22T12:12:46.720Z,18.46
2022-12-22T12:15:27.559Z,18.58
2022-12-22T12:18:03.977Z,18.81
2022-12-22T12:20:39.069Z,18.98
2022-12-22T12:23:40.860Z,19.10
2022-12-22T12:26:24.482Z,19.50
2022-12-22T12:29:24.966Z,19.55
2022-12-22T12:32:02.918Z,19.70
2022-12-22T12:34:39.917Z,19.63
2022-12-22T12:37:27.271Z,19.19
2022-12-22T12:40:02.834Z,19.28
2022-12-22T12:42:36.862Z,19.14
2022-12-22T12:45:05.349Z,19.31
2022-12-22T12:47:34.581Z,19.26
2022-12-22T12:50:34.442Z,19.48
2022-12-22T12:53:07.529Z,19.26
2022-12-22T12:56:02.108Z,18.83
2022-12-22T12:58:37.703Z,18.51
2022-12-22T13:01:12.924Z,18.65
2022-12-22T13:06:50.516Z,18.92
2022-12-22T13:12:33.583Z,18.29
2022-12-22T13:15:01.702Z,18.84
2022-12-22T13:17:47.814Z,19.15
2022-12-22T13:20:18.291Z,19.21
2022-12-22T13:22:45.728Z,19.37
2022-12-22T13:25:16.606Z,19.25
2022-12-22T13:27:43.460Z,18.83
2022-12-22T13:30:16.587Z,18.78
2022-12-22T13:32:46.345Z,19.08
2022-12-22T13:35:33.980Z,19.38
2022-12-22T13:38:02.628Z,19.14
2022-12-22T13:40:31.947Z,19.27
2022-12-22T13:43:05.307Z,18.90
2022-12-22T13:45:37.099Z,18.89
2022-12-22T13:48:13.807Z,18.54
2022-12-22T13:50:50.909Z,18.74
2022-12-22T13:56:20.571Z,19.11
2022-12-22T13:58:53.514Z,19.08
2022-12-22T14:01:20.292Z,19.01
2022-12-22T14:04:01.885Z,18.81
2022-12-22T14:06:34.066Z,18.67
2022-12-22T14:09:18.490Z,19.02
2022-12-22T14:12:06.303Z,19.24
2022-12-22T14:14:40.843Z,19.33
2022-12-22T14:17:26.061Z,19.27
2022-12-22T14:19:58.380Z,19.21
2022-12-22T14:22:33.733Z,19.15
2022-12-22T14:25:09.666Z,18.74
2022-12-22T14:27:40.998Z,18.65
2022-12-22T14:30:23.359Z,18.43
2022-12-22T14:32:56.245Z,18.17
2022-12-22T14:35:22.969Z,18.54
2022-12-22T14:38:02.267Z,18.48
2022-12-22T14:40:30.984Z,18.49
2022-12-22T14:42:59.736Z,18.31
2022-12-22T14:45:26.780Z,18.25
2022-12-22T14:47:55.111Z,17.94
2022-12-22T14:50:25.563Z,17.65
2022-12-22T14:53:01.127Z,17.86
2022-12-22T14:55:39.173Z,17.78
2022-12-22T14:58:25.999Z,17.27
2022-12-22T15:01:31.460Z,16.77
2022-12-22T15:04:04.302Z,17.06
2022-12-22T15:06:34.987Z,17.00
2022-12-22T15:09:07.206Z,17.17
2022-12-22T15:11:36.109Z,17.26
2022-12-22T15:14:04.576Z,17.35
2022-12-22T15:16:31.349Z,17.15
2022-12-22T15:18:58.013Z,17.17
2022-12-22T15:21:24.797Z,17.26
2022-12-22T15:23:51.714Z,17.11
2022-12-22T15:26:18.231Z,17.05
2022-12-22T15:28:44.815Z,16.47
2022-12-22T15:31:16.938Z,16.64
2022-12-22T15:33:44.902Z,16.36
2022-12-22T15:36:13.789Z,16.14
2022-12-22T15:38:41.181Z,16.19
2022-12-22T15:41:08.078Z,15.91
2022-12-22T15:43:57.180Z,16.11
2022-12-22T15:46:25.296Z,16.22
2022-12-22T15:48:52.434Z,16.00
2022-12-22T15:51:28.184Z,16.18
2022-12-22T15:53:57.162Z,15.92
2022-12-22T15:56:26.473Z,15.95
2022-12-22T15:58:53.537Z,15.85
2022-12-22T16:01:20.270Z,16.22
2022-12-22T16:03:47.052Z,16.50
2022-12-22T16:06:15.642Z,16.46
2022-12-22T16:08:49.905Z,16.55
2022-12-22T16:11:17.508Z,16.54
2022-12-22T16:13:45.217Z,16.59
2022-12-22T16:16:12.210Z,16.74
2022-12-22T16:18:38.901Z,16.66
2022-12-22T16:21:15.140Z,16.65
2022-12-22T16:23:44.043Z,16.56
2022-12-22T16:26:16.848Z,16.20
2022-12-22T16:28:43.802Z,16.26
2022-12-22T16:31:19.203Z,16.40
2022-12-22T16:33:45.841Z,16.44
2022-12-22T16:36:13.549Z,16.43
2022-12-22T16:38:41.273Z,16.50
2022-12-22T16:41:19.231Z,16.58
2022-12-22T16:46:30.507Z,16.37
2022-12-22T16:49:00.894Z,15.32
2022-12-22T16:51:37.235Z,15.64
2022-12-22T16:54:04.458Z,15.87
2022-12-22T16:56:31.739Z,15.99
2022-12-22T16:58:58.947Z,16.20
2022-12-22T17:01:39.909Z,16.10
2022-12-22T17:04:13.950Z,16.20
2022-12-22T17:06:41.667Z,15.98
2022-12-22T17:09:15.958Z,16.15
2022-12-22T17:11:44.787Z,16.09
2022-12-22T17:14:23.056Z,16.09
2022-12-22T17:16:50.519Z,15.91
2022-12-22T17:19:18.374Z,16.13
2022-12-22T17:21:45.846Z,16.19
2022-12-22T17:24:18.139Z,16.41
2022-12-22T17:26:47.412Z,16.53
2022-12-22T17:29:20.152Z,16.22
2022-12-22T17:31:47.556Z,16.05
2022-12-22T17:34:18.649Z,16.21
2022-12-22T17:36:47.810Z,15.87
2022-12-22T17:39:18.544Z,16.23
2022-12-22T17:41:49.066Z,16.41
2022-12-22T17:44:23.616Z,16.36
2022-12-22T17:46:50.194Z,16.29
2022-12-22T17:49:20.104Z,15.93
2022-12-22T17:51:47.131Z,16.14
2022-12-22T17:54:22.335Z,16.21
2022-12-22T17:56:49.245Z,16.22
2022-12-22T17:59:16.172Z,16.23
2022-12-22T18:01:42.912Z,15.80
2022-12-22T18:04:10.390Z,15.85
2022-12-22T18:06:39.420Z,15.82
2022-12-22T18:09:07.393Z,15.63
2022-12-22T18:11:34.452Z,15.70
2022-12-22T18:14:01.426Z,15.64
2022-12-22T18:16:29.558Z,15.28
2022-12-22T18:18:56.629Z,15.70
2022-12-22T18:21:24.878Z,15.55
2022-12-22T18:23:52.750Z,15.20
2022-12-22T18:26:24.120Z,15.22
2022-12-22T18:28:51.546Z,15.33
2022-12-22T18:31:19.226Z,15.60
2022-12-22T18:33:45.819Z,15.61
2022-12-22T18:36:29.679Z,15.57
2022-12-22T18:38:57.503Z,15.92
2022-12-22T18:41:26.127Z,15.97
2022-12-22T18:43:53.058Z,16.02
2022-12-22T18:46:19.847Z,16.22
2022-12-22T18:48:47.706Z,16.25
2022-12-22T18:51:23.017Z,16.28
2022-12-22T18:53:54.132Z,16.07
2022-12-22T18:56:21.771Z,16.23
2022-12-22T18:58:49.179Z,16.26
2022-12-22T19:01:24.628Z,16.27
2022-12-22T19:03:54.054Z,16.35
2022-12-22T19:06:22.235Z,16.34
2022-12-22T19:08:49.963Z,16.31
2022-12-22T19:11:21.261Z,16.41
2022-12-22T19:13:51.337Z,16.24
2022-12-22T19:16:22.896Z,15.93
2022-12-22T19:18:49.920Z,15.95
2022-12-22T19:21:17.853Z,16.00
2022-12-22T19:23:44.937Z,15.88
2022-12-22T19:26:24.247Z,15.93
2022-12-22T19:29:03.189Z,15.96
2022-12-22T19:31:33.508Z,15.96
2022-12-22T19:34:03.650Z,16.14
2022-12-22T19:36:31.289Z,16.38
2022-12-22T19:39:03.856Z,16.49
2022-12-22T19:41:38.537Z,16.43
2022-12-22T19:44:05.710Z,16.54
2022-12-22T19:46:34.276Z,16.62
2022-12-22T19:49:01.077Z,16.71
2022-12-22T19:51:27.904Z,16.79
2022-12-22T19:53:54.461Z,16.78
2022-12-22T19:56:27.165Z,16.85
2022-12-22T19:58:55.608Z,16.78
2022-12-22T20:01:23.136Z,16.86
2022-12-22T20:03:49.781Z,16.87
2022-12-22T20:06:17.652Z,16.84
2022-12-22T20:08:45.203Z,16.78
2022-12-22T20:11:16.843Z,16.54
2022-12-22T20:13:44.649Z,16.44
2022-12-22T20:16:13.733Z,15.95
2022-12-22T20:18:41.157Z,15.79
2022-12-22T20:21:21.412Z,15.86
2022-12-22T20:23:48.191Z,15.82
2022-12-22T20:26:19.725Z,15.69
2022-12-22T20:28:46.732Z,15.78
2022-12-22T20:31:15.892Z,15.58
2022-12-22T20:33:42.908Z,15.74
2022-12-22T20:36:20.161Z,15.85
2022-12-22T20:38:47.690Z,15.65
2022-12-22T20:41:14.469Z,15.51
2022-12-22T20:43:41.755Z,15.26
2022-12-22T20:46:18.298Z,15.49
2022-12-22T20:48:53.737Z,15.26
2022-12-22T20:51:21.294Z,15.22
2022-12-22T20:53:48.422Z,15.18
2022-12-22T20:56:29.503Z,15.25
2022-12-22T20:58:57.188Z,15.10
2022-12-22T21:01:26.129Z,15.07
2022-12-22T21:03:53.235Z,15.29
2022-12-22T21:06:19.754Z,15.40
2022-12-22T21:08:46.647Z,15.28
2022-12-22T21:11:13.167Z,15.23
2022-12-22T21:13:39.746Z,15.38
2022-12-22T21:16:12.742Z,15.37
2022-12-22T21:18:39.331Z,15.25
2022-12-22T21:21:06.174Z,15.05
2022-12-22T21:23:32.781Z,15.18
2022-12-22T21:25:59.833Z,15.46
2022-12-22T21:28:32.486Z,15.04
2022-12-22T21:30:59.979Z,14.81
2022-12-22T21:33:26.843Z,14.81
2022-12-22T21:35:55.585Z,14.88
2022-12-22T21:38:25.129Z,14.95
2022-12-22T21:40:51.664Z,15.25
2022-12-22T21:43:18.200Z,15.52
2022-12-22T21:45:45.052Z,15.70
2022-12-22T21:48:14.075Z,15.77
2022-12-22T21:50:41.037Z,15.75
2022-12-22T21:53:08.165Z,15.82
2022-12-22T21:55:37.886Z,15.85
2022-12-22T21:58:06.253Z,15.68
2022-12-22T22:00:34.290Z,15.50
2022-12-22T22:03:03.192Z,15.57
2022-12-22T22:05:35.757Z,15.33
2022-12-22T22:08:04.231Z,15.25
2022-12-22T22:10:33.738Z,15.29
2022-12-22T22:13:00.968Z,15.62
2022-12-22T22:15:29.374Z,15.75
2022-12-22T22:17:59.776Z,15.83
2022-12-22T22:20:32.239Z,15.53
2022-12-22T22:22:59.903Z,15.82
2022-12-22T22:25:26.871Z,15.55
2022-12-22T22:27:53.505Z,15.68
2022-12-22T22:30:22.724Z,15.54
2022-12-22T22:32:49.596Z,15.59
2022-12-22T22:35:18.370Z,15.61
2022-12-22T22:37:46.307Z,15.85
2022-12-22T22:40:14.651Z,16.09
2022-12-22T22:42:41.271Z,16.21
2022-12-22T22:45:08.903Z,16.49
2022-12-22T22:47:35.414Z,16.56
2022-12-22T22:50:06.822Z,16.64
2022-12-22T22:52:34.286Z,16.85
2022-12-22T22:55:01.515Z,17.06
2022-12-22T22:57:28.089Z,17.22
2022-12-22T22:59:54.612Z,17.27
2022-12-22T23:02:21.334Z,17.32
2022-12-22T23:04:48.217Z,17.40
2022-12-22T23:07:14.766Z,17.46
2022-12-22T23:09:41.433Z,17.58
2022-12-22T23:12:07.978Z,17.61
2022-12-22T23:14:34.811Z,17.69
2022-12-22T23:17:01.329Z,17.78
2022-12-22T23:19:28.049Z,17.82
2022-12-22T23:21:54.581Z,17.84
2022-12-22T23:24:21.221Z,17.83
2022-12-22T23:26:48.266Z,17.78
2022-12-22T23:29:14.840Z,17.66
2022-12-22T23:31:41.477Z,17.39
2022-12-22T23:34:10.854Z,17.16
2022-12-22T23:36:37.662Z,16.95
2022-12-22T23:39:04.771Z,17.11
2022-12-22T23:41:31.383Z,16.72
2022-12-22T23:43:57.900Z,16.92
2022-12-22T23:46:24.804Z,16.91
2022-12-22T23:48:53.349Z,17.03
2022-12-22T23:51:20.932Z,17.23
2022-12-22T23:53:47.703Z,17.38
2022-12-22T23:56:14.567Z,17.39
2022-12-22T23:58:41.580Z,17.47
